Seaspan Chiwan — VRBH3 — position and weather

sailwx.info

Track history (hours):
 
Tides and Currents Weather Stations Pressure Air Temp Water Temp Dewpoint Dewpoint Depression Visibility Wind Speed Wind Dir Waves Ship Positions

Seaspan Chiwan

Last reported at 2015-Mar-23 08:09 UTC. Time now 2015-Mar-28 12:23 UTC.
Position N 32°14' W 117°37'.

Length 260 m; draft 10.4 m.

Type: Cargo ship. MMSI: 477014500.

Date/timePositionNaut miles runAvg speedWind from/ knotsBaromVisibWave heightAir tempDewpointWater temp
2015-Mar-23 08:09N 32°14' W 117°37'915.4
2015-Mar-23 07:34N 32°23' W 117°40'1515.4
2015-Mar-23 06:34N 32°37' W 117°46'1615.6
2015-Mar-23 05:34N 32°51' W 117°54'1615.6
2015-Mar-23 04:34N 33°06' W 118°01'1515.1
2015-Mar-23 03:33N 33°20' W 118°07'1212.2
2015-Mar-23 02:33N 33°32' W 118°12'1110.9
2015-Mar-23 01:33N 33°42' W 118°15'2 1.5
2015-Mar-23 00:32N 33°44' W 118°15'0 0.0
2015-Mar-22 23:31N 33°44' W 118°15'0 0.0
2015-Mar-22 22:34N 33°44' W 118°15'0 0.0
2015-Mar-22 21:33N 33°44' W 118°15'0 0.0
2015-Mar-22 20:34N 33°44' W 118°15'0 0.0
2015-Mar-22 19:33N 33°44' W 118°15'0 0.0
2015-Mar-22 18:33N 33°44' W 118°15'0 0.0
2015-Mar-22 17:21N 33°44' W 118°15'0 0.0
2015-Mar-22 16:34N 33°44' W 118°15'0 0.0
2015-Mar-22 15:23N 33°44' W 118°15'0 0.0
2015-Mar-22 14:07N 33°44' W 118°15'0 0.0
2015-Mar-22 13:30N 33°44' W 118°15'1 1.1
2015-Mar-22 12:33N 33°43' W 118°15'5 4.7
2015-Mar-22 11:33N 33°38' W 118°14'7 6.7
2015-Mar-22 10:33N 33°37' W 118°22'1010.3
2015-Mar-22 09:34N 33°42' W 118°32'1110.8
2015-Mar-22 08:33N 33°47' W 118°44'1111.3
2015-Mar-22 07:33N 33°53' W 118°56'1412.2
2015-Mar-22 06:25N 33°59' W 119°10'1112.1
2015-Mar-22 05:33N 34°04' W 119°22'1212.0
2015-Mar-22 04:33N 34°07' W 119°36'1212.3
2015-Mar-22 03:33N 34°10' W 119°50'1312.7
2015-Mar-22 02:33N 34°13' W 120°05'1212.5
2015-Mar-22 01:34N 34°17' W 120°20'1212.3
2015-Mar-22 00:33N 34°20' W 120°34'1212.3
2015-Mar-21 23:34N 34°23' W 120°48'1211.5
2015-Mar-21 22:29N 34°31' W 121°00'1112.3
2015-Mar-21 21:34N 34°40' W 121°08'1212.4
2015-Mar-21 20:33N 34°50' W 121°17'1312.5
2015-Mar-21 19:34N 35°01' W 121°25'1212.3
2015-Mar-21 18:33N 35°11' W 121°33'28 9.1
2015-Mar-21 15:29N 35°35' W 121°52'10811.9
2015-Mar-21 06:25N 37°14' W 122°43'1012.0
2015-Mar-21 05:34N 37°24' W 122°43'1212.0
2015-Mar-21 04:34N 37°36' W 122°44'1110.7
2015-Mar-21 03:33N 37°46' W 122°38'1313.2
2015-Mar-21 02:33N 37°48' W 122°22'2 2.3
2015-Mar-21 01:31N 37°49' W 122°19'0 0.0
2015-Mar-21 00:28N 37°49' W 122°19'0 0.0
2015-Mar-20 23:33N 37°49' W 122°19'0 0.0
2015-Mar-20 22:33N 37°49' W 122°19'0 0.0
2015-Mar-20 21:33N 37°49' W 122°19'0 0.0
2015-Mar-20 20:33N 37°49' W 122°19'0 0.0
2015-Mar-20 19:33N 37°49' W 122°19'0 0.0
2015-Mar-20 18:33N 37°49' W 122°19'0 0.0
2015-Mar-20 17:33N 37°49' W 122°19'0 0.0
2015-Mar-20 16:33N 37°49' W 122°19'0 0.0
2015-Mar-20 15:33N 37°49' W 122°19'0 0.0
2015-Mar-20 14:33N 37°49' W 122°19'0 0.0
2015-Mar-20 13:33N 37°49' W 122°19'0 0.0
2015-Mar-20 12:33N 37°49' W 122°19'0 0.0
2015-Mar-20 11:33N 37°49' W 122°19'0 0.0
2015-Mar-20 10:33N 37°49' W 122°19'0 0.0
2015-Mar-20 09:33N 37°49' W 122°19'0 0.0
2015-Mar-20 08:33N 37°49' W 122°19'0 0.0
2015-Mar-20 07:33N 37°49' W 122°19'0 0.0
2015-Mar-20 06:33N 37°49' W 122°19'0 0.0
2015-Mar-20 05:33N 37°49' W 122°19'0 0.0
2015-Mar-20 04:33N 37°49' W 122°19'0 0.0
2015-Mar-20 03:33N 37°49' W 122°19'0 0.4
2015-Mar-20 02:33N 37°49' W 122°19'3 2.8
2015-Mar-20 01:31N 37°46' W 122°20'0 0.1
2015-Mar-20 00:31N 37°46' W 122°20'0 0.0
2015-Mar-19 23:28N 37°46' W 122°20'0 0.0
2015-Mar-19 22:28N 37°46' W 122°20'0 0.1
2015-Mar-19 21:31N 37°46' W 122°20'0 0.1
2015-Mar-19 20:31N 37°46' W 122°20'0 0.2
2015-Mar-19 19:31N 37°46' W 122°20'0 0.1
2015-Mar-19 18:31N 37°46' W 122°20'0 0.0
2015-Mar-19 17:31N 37°46' W 122°20'0 0.0
2015-Mar-19 16:31N 37°46' W 122°20'0 0.0
2015-Mar-19 15:31N 37°46' W 122°20'0 0.0
2015-Mar-19 14:31N 37°46' W 122°20'0 0.2
2015-Mar-19 13:33N 37°46' W 122°20'0 0.1
2015-Mar-19 12:33N 37°46' W 122°20'7 7.1
2015-Mar-19 11:33N 37°49' W 122°29'1211.7
2015-Mar-19 10:33N 37°46' W 122°43'9 8.9
2015-Mar-19 09:33N 37°49' W 122°53'1010.2
2015-Mar-19 08:33N 37°55' W 123°05'10 9.7
2015-Mar-19 07:33N 38°00' W 123°14'1211.8
2015-Mar-19 06:33N 38°09' W 123°24'1313.1
2015-Mar-19 05:33N 38°21' W 123°33'1312.8
2015-Mar-19 04:33N 38°32' W 123°41'1312.6
2015-Mar-19 03:33N 38°42' W 123°49'1512.8
2015-Mar-19 02:21N 38°56' W 123°59'54714.1
2015-Mar-17 11:31N 47°60' W 125°16'1515.4
2015-Mar-17 10:34N 48°14' W 125°11'1514.6
2015-Mar-17 09:33N 48°28' W 125°04'1414.3
2015-Mar-17 08:33N 48°30' W 124°43'1514.7
2015-Mar-17 07:34N 48°25' W 124°22'1414.3
2015-Mar-17 06:33N 48°19' W 124°03'1414.1
2015-Mar-17 05:33N 48°16' W 123°42'1211.9
2015-Mar-17 04:34N 48°21' W 123°26'1111.2
2015-Mar-17 03:33N 48°28' W 123°13'1616.2
2015-Mar-17 02:34N 48°44' W 123°08'1313.2
2015-Mar-17 01:34N 48°57' W 123°13'1110.8
2015-Mar-17 00:34N 49°08' W 123°13'1211.8
2015-Mar-16 23:34N 49°10' W 122°56'1 1.0
2015-Mar-16 22:33N 49°11' W 122°55'0 0.0
2015-Mar-16 21:33N 49°11' W 122°55'0 0.0
2015-Mar-16 20:33N 49°11' W 122°55'0 0.0
2015-Mar-16 19:33N 49°11' W 122°55'0 0.0
2015-Mar-16 18:30N 49°11' W 122°55'0 0.0
2015-Mar-16 17:33N 49°11' W 122°55'0 0.0
2015-Mar-16 16:33N 49°11' W 122°55'0 0.0
2015-Mar-16 15:33N 49°11' W 122°55'0 0.0
2015-Mar-16 14:33N 49°11' W 122°55'0 0.0
2015-Mar-16 13:33N 49°11' W 122°55'0 0.0
2015-Mar-16 12:33N 49°11' W 122°55'0 0.0
2015-Mar-16 11:33N 49°11' W 122°55'0 0.0
2015-Mar-16 10:33N 49°11' W 122°55'0 0.0
2015-Mar-16 09:33N 49°11' W 122°55'0 0.0
2015-Mar-16 08:30N 49°11' W 122°55'0 0.0
2015-Mar-16 07:33N 49°11' W 122°55'0 0.0
2015-Mar-16 06:33N 49°11' W 122°55'0 0.0
2015-Mar-16 05:33N 49°11' W 122°55'0 0.0
2015-Mar-16 04:27N 49°11' W 122°55'0 0.0
2015-Mar-16 03:30N 49°11' W 122°55'0 0.0
2015-Mar-16 02:30N 49°11' W 122°55'0 0.0
2015-Mar-16 01:33N 49°11' W 122°55'0 0.0
2015-Mar-16 00:33N 49°11' W 122°55'0 0.0
2015-Mar-15 23:33N 49°11' W 122°55'0 0.0
2015-Mar-15 22:33N 49°11' W 122°55'5 5.2
2015-Mar-15 21:33N 49°09' W 123°02'1211.5
2015-Mar-15 20:33N 49°06' W 123°19'9 8.7
2015-Mar-15 19:33N 48°58' W 123°12'1414.2
2015-Mar-15 18:33N 48°46' W 123°02'1413.7
2015-Mar-15 17:33N 48°34' W 123°12'1313.4
2015-Mar-15 16:33N 48°22' W 123°21'7 7.3
2015-Mar-15 15:33N 48°15' W 123°26'9 9.3
2015-Mar-15 14:33N 48°14' W 123°40'1212.5
2015-Mar-15 13:34N 48°15' W 123°59'1514.9
2015-Mar-15 12:34N 48°21' W 124°19'1515.4
2015-Mar-15 11:34N 48°27' W 124°40'1413.9
2015-Mar-15 10:34N 48°26' W 125°01'1514.5
2015-Mar-15 09:33N 48°13' W 125°10'1514.5
2015-Mar-15 08:32N 47°58' W 125°15'54514.6
2015-Mar-13 19:11N 38°56' W 123°57'915.0
2015-Mar-13 18:33N 38°48' W 123°51'1514.6
2015-Mar-13 17:33N 38°35' W 123°41'1414.0
2015-Mar-13 16:33N 38°23' W 123°32'1413.7
2015-Mar-13 15:33N 38°11' W 123°23'1413.7
2015-Mar-13 14:34N 38°01' W 123°12'1414.1
2015-Mar-13 13:33N 37°53' W 122°57'1514.5
2015-Mar-13 12:33N 37°46' W 122°41'1313.3
2015-Mar-13 11:33N 37°50' W 122°25'4 4.4
2015-Mar-13 10:33N 37°49' W 122°19'0 0.0
2015-Mar-13 09:33N 37°49' W 122°19'0 0.0
2015-Mar-13 08:33N 37°49' W 122°19'  
Track history (hours):
 
Tides and Currents Weather Stations Pressure Air Temp Water Temp Dewpoint Dewpoint Depression Visibility Wind Speed Wind Dir Waves Ship Positions

Seaspan Chiwan

Last reported at 2015-Mar-23 08:09 UTC. Time now 2015-Mar-28 12:23 UTC.
Position N 32°14' W 117°37'.

Length 260 m; draft 10.4 m.

Type: Cargo ship. MMSI: 477014500.

Date/timePositionNaut miles runAvg speedWind from/ knotsBaromVisibWave heightAir tempDewpointWater temp
2015-Mar-23 08:09N 32°14' W 117°37'915.4
2015-Mar-23 07:34N 32°23' W 117°40'1515.4
2015-Mar-23 06:34N 32°37' W 117°46'1615.6
2015-Mar-23 05:34N 32°51' W 117°54'1615.6
2015-Mar-23 04:34N 33°06' W 118°01'1515.1
2015-Mar-23 03:33N 33°20' W 118°07'1212.2
2015-Mar-23 02:33N 33°32' W 118°12'1110.9
2015-Mar-23 01:33N 33°42' W 118°15'2 1.5
2015-Mar-23 00:32N 33°44' W 118°15'0 0.0
2015-Mar-22 23:31N 33°44' W 118°15'0 0.0
2015-Mar-22 22:34N 33°44' W 118°15'0 0.0
2015-Mar-22 21:33N 33°44' W 118°15'0 0.0
2015-Mar-22 20:34N 33°44' W 118°15'0 0.0
2015-Mar-22 19:33N 33°44' W 118°15'0 0.0
2015-Mar-22 18:33N 33°44' W 118°15'0 0.0
2015-Mar-22 17:21N 33°44' W 118°15'0 0.0
2015-Mar-22 16:34N 33°44' W 118°15'0 0.0
2015-Mar-22 15:23N 33°44' W 118°15'0 0.0
2015-Mar-22 14:07N 33°44' W 118°15'0 0.0
2015-Mar-22 13:30N 33°44' W 118°15'1 1.1
2015-Mar-22 12:33N 33°43' W 118°15'5 4.7
2015-Mar-22 11:33N 33°38' W 118°14'7 6.7
2015-Mar-22 10:33N 33°37' W 118°22'1010.3
2015-Mar-22 09:34N 33°42' W 118°32'1110.8
2015-Mar-22 08:33N 33°47' W 118°44'1111.3
2015-Mar-22 07:33N 33°53' W 118°56'1412.2
2015-Mar-22 06:25N 33°59' W 119°10'1112.1
2015-Mar-22 05:33N 34°04' W 119°22'1212.0
2015-Mar-22 04:33N 34°07' W 119°36'1212.3
2015-Mar-22 03:33N 34°10' W 119°50'1312.7
2015-Mar-22 02:33N 34°13' W 120°05'1212.5
2015-Mar-22 01:34N 34°17' W 120°20'1212.3
2015-Mar-22 00:33N 34°20' W 120°34'1212.3
2015-Mar-21 23:34N 34°23' W 120°48'1211.5
2015-Mar-21 22:29N 34°31' W 121°00'1112.3
2015-Mar-21 21:34N 34°40' W 121°08'1212.4
2015-Mar-21 20:33N 34°50' W 121°17'1312.5
2015-Mar-21 19:34N 35°01' W 121°25'1212.3
2015-Mar-21 18:33N 35°11' W 121°33'28 9.1
2015-Mar-21 15:29N 35°35' W 121°52'10811.9
2015-Mar-21 06:25N 37°14' W 122°43'1012.0
2015-Mar-21 05:34N 37°24' W 122°43'1212.0
2015-Mar-21 04:34N 37°36' W 122°44'1110.7
2015-Mar-21 03:33N 37°46' W 122°38'1313.2
2015-Mar-21 02:33N 37°48' W 122°22'2 2.3
2015-Mar-21 01:31N 37°49' W 122°19'0 0.0
2015-Mar-21 00:28N 37°49' W 122°19'0 0.0
2015-Mar-20 23:33N 37°49' W 122°19'0 0.0
2015-Mar-20 22:33N 37°49' W 122°19'0 0.0
2015-Mar-20 21:33N 37°49' W 122°19'0 0.0
2015-Mar-20 20:33N 37°49' W 122°19'0 0.0
2015-Mar-20 19:33N 37°49' W 122°19'0 0.0
2015-Mar-20 18:33N 37°49' W 122°19'0 0.0
2015-Mar-20 17:33N 37°49' W 122°19'0 0.0
2015-Mar-20 16:33N 37°49' W 122°19'0 0.0
2015-Mar-20 15:33N 37°49' W 122°19'0 0.0
2015-Mar-20 14:33N 37°49' W 122°19'0 0.0
2015-Mar-20 13:33N 37°49' W 122°19'0 0.0
2015-Mar-20 12:33N 37°49' W 122°19'0 0.0
2015-Mar-20 11:33N 37°49' W 122°19'0 0.0
2015-Mar-20 10:33N 37°49' W 122°19'0 0.0
2015-Mar-20 09:33N 37°49' W 122°19'0 0.0
2015-Mar-20 08:33N 37°49' W 122°19'0 0.0
2015-Mar-20 07:33N 37°49' W 122°19'0 0.0
2015-Mar-20 06:33N 37°49' W 122°19'0 0.0
2015-Mar-20 05:33N 37°49' W 122°19'0 0.0
2015-Mar-20 04:33N 37°49' W 122°19'0 0.0
2015-Mar-20 03:33N 37°49' W 122°19'0 0.4
2015-Mar-20 02:33N 37°49' W 122°19'3 2.8
2015-Mar-20 01:31N 37°46' W 122°20'0 0.1
2015-Mar-20 00:31N 37°46' W 122°20'0 0.0
2015-Mar-19 23:28N 37°46' W 122°20'0 0.0
2015-Mar-19 22:28N 37°46' W 122°20'0 0.1
2015-Mar-19 21:31N 37°46' W 122°20'0 0.1
2015-Mar-19 20:31N 37°46' W 122°20'0 0.2
2015-Mar-19 19:31N 37°46' W 122°20'0 0.1
2015-Mar-19 18:31N 37°46' W 122°20'0 0.0
2015-Mar-19 17:31N 37°46' W 122°20'0 0.0
2015-Mar-19 16:31N 37°46' W 122°20'0 0.0
2015-Mar-19 15:31N 37°46' W 122°20'0 0.0
2015-Mar-19 14:31N 37°46' W 122°20'0 0.2
2015-Mar-19 13:33N 37°46' W 122°20'0 0.1
2015-Mar-19 12:33N 37°46' W 122°20'7 7.1
2015-Mar-19 11:33N 37°49' W 122°29'1211.7
2015-Mar-19 10:33N 37°46' W 122°43'9 8.9
2015-Mar-19 09:33N 37°49' W 122°53'1010.2
2015-Mar-19 08:33N 37°55' W 123°05'10 9.7
2015-Mar-19 07:33N 38°00' W 123°14'1211.8
2015-Mar-19 06:33N 38°09' W 123°24'1313.1
2015-Mar-19 05:33N 38°21' W 123°33'1312.8
2015-Mar-19 04:33N 38°32' W 123°41'1312.6
2015-Mar-19 03:33N 38°42' W 123°49'1512.8
2015-Mar-19 02:21N 38°56' W 123°59'54714.1
2015-Mar-17 11:31N 47°60' W 125°16'1515.4
2015-Mar-17 10:34N 48°14' W 125°11'1514.6
2015-Mar-17 09:33N 48°28' W 125°04'1414.3
2015-Mar-17 08:33N 48°30' W 124°43'1514.7
2015-Mar-17 07:34N 48°25' W 124°22'1414.3
2015-Mar-17 06:33N 48°19' W 124°03'1414.1
2015-Mar-17 05:33N 48°16' W 123°42'1211.9
2015-Mar-17 04:34N 48°21' W 123°26'1111.2
2015-Mar-17 03:33N 48°28' W 123°13'1616.2
2015-Mar-17 02:34N 48°44' W 123°08'1313.2
2015-Mar-17 01:34N 48°57' W 123°13'1110.8
2015-Mar-17 00:34N 49°08' W 123°13'1211.8
2015-Mar-16 23:34N 49°10' W 122°56'1 1.0
2015-Mar-16 22:33N 49°11' W 122°55'0 0.0
2015-Mar-16 21:33N 49°11' W 122°55'0 0.0
2015-Mar-16 20:33N 49°11' W 122°55'0 0.0
2015-Mar-16 19:33N 49°11' W 122°55'0 0.0
2015-Mar-16 18:30N 49°11' W 122°55'0 0.0
2015-Mar-16 17:33N 49°11' W 122°55'0 0.0
2015-Mar-16 16:33N 49°11' W 122°55'0 0.0
2015-Mar-16 15:33N 49°11' W 122°55'0 0.0
2015-Mar-16 14:33N 49°11' W 122°55'0 0.0
2015-Mar-16 13:33N 49°11' W 122°55'0 0.0
2015-Mar-16 12:33N 49°11' W 122°55'0 0.0
2015-Mar-16 11:33N 49°11' W 122°55'0 0.0
2015-Mar-16 10:33N 49°11' W 122°55'0 0.0
2015-Mar-16 09:33N 49°11' W 122°55'0 0.0
2015-Mar-16 08:30N 49°11' W 122°55'0 0.0
2015-Mar-16 07:33N 49°11' W 122°55'0 0.0
2015-Mar-16 06:33N 49°11' W 122°55'0 0.0
2015-Mar-16 05:33N 49°11' W 122°55'0 0.0
2015-Mar-16 04:27N 49°11' W 122°55'0 0.0
2015-Mar-16 03:30N 49°11' W 122°55'0 0.0
2015-Mar-16 02:30N 49°11' W 122°55'0 0.0
2015-Mar-16 01:33N 49°11' W 122°55'0 0.0
2015-Mar-16 00:33N 49°11' W 122°55'0 0.0
2015-Mar-15 23:33N 49°11' W 122°55'0 0.0
2015-Mar-15 22:33N 49°11' W 122°55'5 5.2
2015-Mar-15 21:33N 49°09' W 123°02'1211.5
2015-Mar-15 20:33N 49°06' W 123°19'9 8.7
2015-Mar-15 19:33N 48°58' W 123°12'1414.2
2015-Mar-15 18:33N 48°46' W 123°02'1413.7
2015-Mar-15 17:33N 48°34' W 123°12'1313.4
2015-Mar-15 16:33N 48°22' W 123°21'7 7.3
2015-Mar-15 15:33N 48°15' W 123°26'9 9.3
2015-Mar-15 14:33N 48°14' W 123°40'1212.5
2015-Mar-15 13:34N 48°15' W 123°59'1514.9
2015-Mar-15 12:34N 48°21' W 124°19'1515.4
2015-Mar-15 11:34N 48°27' W 124°40'1413.9
2015-Mar-15 10:34N 48°26' W 125°01'1514.5
2015-Mar-15 09:33N 48°13' W 125°10'1514.5
2015-Mar-15 08:32N 47°58' W 125°15'54514.6
2015-Mar-13 19:11N 38°56' W 123°57'915.0
2015-Mar-13 18:33N 38°48' W 123°51'1514.6
2015-Mar-13 17:33N 38°35' W 123°41'1414.0
2015-Mar-13 16:33N 38°23' W 123°32'1413.7
2015-Mar-13 15:33N 38°11' W 123°23'1413.7
2015-Mar-13 14:34N 38°01' W 123°12'1414.1
2015-Mar-13 13:33N 37°53' W 122°57'1514.5
2015-Mar-13 12:33N 37°46' W 122°41'1313.3
2015-Mar-13 11:33N 37°50' W 122°25'4 4.4
2015-Mar-13 10:33N 37°49' W 122°19'0 0.0
2015-Mar-13 09:33N 37°49' W 122°19'0 0.0
2015-Mar-13 08:33N 37°49' W 122°19'  

Dump ship's entire track history